< < Back
Terminal Aerodrome Forecast


Current Version              Previous Versions:   1  2  3  4  5  6  7  8  9  

Terminal Aerodrome Forecast

178
FTUS44 KHUN 311120
TAFHSV
TAF
KHSV 311120Z 3112/0112 VRB04KT P6SM OVC120
     FM311500 11005KT P6SM SCT100 BKN150
     FM011100 00000KT P6SM VCSH OVC050=



Latest METAR

435
SAUS80 KWBC 010200 RRD
MTRHSV
METAR KHSV 010153Z 12004KT 10SM FEW130 SCT250 23/17 A3005 RMK AO2 SLP170
T02280167


USA.gov is the U.S. government's official web portal to all federal, state and local government web resources and services.